Time;durP1;ratioP1;P1;durP2;ratioP2;P2;SDS_P1;SDS_P2;PMS_P1;PMS_P2;Temp;Humidity;BMP_temperature;BMP_pressure;BME280_temperature;BME280_humidity;BME280_pressure;Samples;Min_cycle;Max_cycle;Signal;HPM_P1;HPM_P2
2022/07/28 00:00:50;;;;;;;4.70;1.90;;;10.30;99.90;;;;;;5044253;28;20041;-75
2022/07/28 00:03:16;;;;;;;6.70;1.80;;;10.40;99.90;;;;;;5038473;28;20523;-75
2022/07/28 00:05:42;;;;;;;5.68;2.03;;;10.30;99.90;;;;;;5044974;28;20044;-75
2022/07/28 00:08:09;;;;;;;5.55;1.85;;;10.30;99.90;;;;;;5037988;28;20048;-75
2022/07/28 00:10:34;;;;;;;6.25;2.00;;;10.30;99.90;;;;;;5027188;28;20068;-75
2022/07/28 00:13:00;;;;;;;6.93;2.25;;;10.30;99.90;;;;;;5026127;28;20502;-75
2022/07/28 00:15:27;;;;;;;5.95;2.20;;;10.30;99.90;;;;;;5026904;28;20044;-74
2022/07/28 00:17:52;;;;;;;6.50;2.10;;;10.30;99.90;;;;;;5027381;28;20057;-75
2022/07/28 00:20:19;;;;;;;6.55;1.83;;;10.30;99.90;;;;;;5043620;28;20117;-74
2022/07/28 00:22:45;;;;;;;6.47;2.15;;;10.20;99.90;;;;;;5042040;28;20053;-74
2022/07/28 00:25:11;;;;;;;6.30;2.67;;;10.20;99.90;;;;;;5042490;28;20556;-75
2022/07/28 00:27:37;;;;;;;6.15;2.00;;;10.20;99.90;;;;;;5041376;28;20044;-74
2022/07/28 00:30:05;;;;;;;6.05;2.10;;;10.10;99.90;;;;;;5027711;28;20033;-75
2022/07/28 00:32:31;;;;;;;7.10;2.20;;;10.10;99.90;;;;;;5040929;28;20049;-74
2022/07/28 00:34:56;;;;;;;5.97;2.05;;;10.10;99.90;;;;;;5041519;28;20122;-75
2022/07/28 00:37:22;;;;;;;5.43;2.15;;;10.10;99.90;;;;;;5043345;28;20043;-74
2022/07/28 00:39:51;;;;;;;4.95;2.25;;;10.00;99.90;;;;;;5041634;28;20132;-75
2022/07/28 00:42:20;;;;;;;6.15;2.22;;;10.10;99.90;;;;;;5042140;28;20048;-75
2022/07/28 00:44:46;;;;;;;7.55;2.10;;;10.10;99.90;;;;;;5043627;28;20067;-74
2022/07/28 00:47:13;;;;;;;5.53;2.13;;;10.10;99.90;;;;;;5040583;28;20127;-75
2022/07/28 00:49:39;;;;;;;4.88;1.80;;;10.10;99.90;;;;;;5040586;28;20218;-75
2022/07/28 00:52:10;;;;;;;4.32;1.80;;;10.30;99.90;;;;;;5042537;28;20538;-75
2022/07/28 00:54:36;;;;;;;8.80;2.17;;;10.00;99.90;;;;;;5042984;28;20519;-75
2022/07/28 00:57:02;;;;;;;4.90;1.85;;;10.00;99.90;;;;;;5041834;28;20087;-75
2022/07/28 00:59:27;;;;;;;5.93;2.40;;;10.40;99.90;;;;;;5041803;28;20393;-75
2022/07/28 01:01:54;;;;;;;5.80;2.00;;;10.00;99.90;;;;;;5031829;28;20588;-75
2022/07/28 01:04:20;;;;;;;6.60;1.90;;;10.00;99.90;;;;;;5041500;28;20080;-75
2022/07/28 01:07:11;;;;;;;5.60;1.90;;;10.00;99.90;;;;;;5023650;28;20115;-75
2022/07/28 01:09:54;;;;;;;7.40;1.83;;;10.00;99.90;;;;;;5046719;28;20142;-75
2022/07/28 01:12:36;;;;;;;5.85;1.60;;;10.00;99.90;;;;;;5045280;28;20447;-75
2022/07/28 01:15:07;;;;;;;5.55;1.83;;;10.00;99.90;;;;;;5062148;28;20029;-75
2022/07/28 01:17:49;;;;;;;5.60;2.00;;;10.00;99.90;;;;;;5039914;28;20865;-74
2022/07/28 01:20:21;;;;;;;4.32;1.73;;;10.00;99.90;;;;;;5023097;28;20294;-75
2022/07/28 01:23:03;;;;;;;4.78;1.80;;;10.00;99.90;;;;;;5046658;28;20147;-75
2022/07/28 01:25:45;;;;;;;3.63;1.70;;;10.00;99.90;;;;;;5047700;28;20044;-75
2022/07/28 01:28:42;;;;;;;5.35;1.48;;;10.00;99.90;;;;;;5024322;28;20058;-75
2022/07/28 01:31:09;;;;;;;6.07;2.05;;;10.10;99.90;;;;;;5046718;28;20438;-75
2022/07/28 01:33:44;;;;;;;5.70;2.10;;;10.00;99.90;;;;;;5048698;28;20061;-74
2022/07/28 01:36:15;;;;;;;6.43;2.20;;;10.00;99.90;;;;;;5047625;28;20066;-74
2022/07/28 01:38:42;;;;;;;7.90;2.30;;;10.00;99.90;;;;;;5028931;28;20064;-75
2022/07/28 01:41:13;;;;;;;5.20;1.98;;;10.00;99.90;;;;;;5046676;28;20134;-75
2022/07/28 01:43:43;;;;;;;7.13;2.22;;;9.90;99.90;;;;;;5046411;28;20049;-75
2022/07/28 01:46:10;;;;;;;9.50;2.10;;;9.90;99.90;;;;;;5046239;28;20032;-75
2022/07/28 01:48:38;;;;;;;5.63;2.38;;;10.00;99.90;;;;;;5045167;28;20049;-75
2022/07/28 01:51:06;;;;;;;5.28;2.10;;;10.00;99.90;;;;;;5026752;28;21751;-75
2022/07/28 01:53:33;;;;;;;5.43;2.20;;;10.00;99.90;;;;;;5045442;28;20533;-75
2022/07/28 01:56:01;;;;;;;6.95;2.30;;;10.00;99.90;;;;;;5047477;28;20472;-75
2022/07/28 01:58:29;;;;;;;6.28;2.35;;;10.00;99.90;;;;;;5043698;28;20048;-75
2022/07/28 02:00:57;;;;;;;10.35;2.40;;;10.00;99.90;;;;;;5046291;28;20044;-75
2022/07/28 02:03:27;;;;;;;6.40;2.30;;;10.00;99.90;;;;;;5028932;28;20132;-75
2022/07/28 02:05:55;;;;;;;7.30;2.17;;;10.00;99.90;;;;;;5044036;28;20073;-74
2022/07/28 02:08:22;;;;;;;5.60;2.40;;;10.00;99.90;;;;;;5026746;28;20045;-74
2022/07/28 02:13:35;;;;;;;9.88;2.40;;;9.90;99.90;;;;;;5045227;28;20055;-74
2022/07/28 02:16:05;;;;;;;7.00;2.58;;;9.90;99.90;;;;;;5045931;28;20500;-75
2022/07/28 02:18:32;;;;;;;8.30;2.30;;;9.90;99.90;;;;;;5043118;28;20105;-74
2022/07/28 02:21:00;;;;;;;5.82;2.47;;;9.90;99.90;;;;;;5042644;28;20387;-75
2022/07/28 02:23:27;;;;;;;5.38;2.25;;;10.00;99.90;;;;;;5023110;28;20041;-75
2022/07/28 02:25:54;;;;;;;5.60;2.38;;;10.00;99.90;;;;;;5045121;28;20888;-75
2022/07/28 02:28:21;;;;;;;6.45;2.55;;;9.90;99.90;;;;;;5044261;28;20040;-75
2022/07/28 02:30:54;;;;;;;7.63;2.55;;;9.90;99.90;;;;;;5060666;28;20052;-75
2022/07/28 02:33:22;;;;;;;4.68;2.30;;;10.00;99.90;;;;;;5026662;28;20515;-75
2022/07/28 02:36:12;;;;;;;6.63;2.47;;;9.90;99.90;;;;;;5027573;28;20186;-74
2022/07/28 02:38:40;;;;;;;5.22;2.28;;;9.90;99.90;;;;;;5042378;28;20366;-75
2022/07/28 02:41:26;;;;;;;4.55;2.40;;;9.90;99.90;;;;;;5043290;28;20048;-75
2022/07/28 02:43:55;;;;;;;6.90;2.83;;;9.90;99.90;;;;;;5042085;28;20055;-75
2022/07/28 02:46:43;;;;;;;6.25;2.15;;;9.90;99.90;;;;;;5044933;28;20056;-74
2022/07/28 02:49:18;;;;;;;5.30;2.20;;;9.90;99.90;;;;;;5042545;28;20372;-74
2022/07/28 02:51:47;;;;;;;6.22;2.17;;;10.00;99.90;;;;;;5046959;28;20477;-74
2022/07/28 02:54:16;;;;;;;6.50;2.17;;;10.30;99.90;;;;;;5030690;28;20359;-73
2022/07/28 02:56:45;;;;;;;6.10;2.33;;;10.00;99.90;;;;;;5029532;28;20040;-74
2022/07/28 02:59:11;;;;;;;8.18;2.83;;;10.10;99.90;;;;;;5043163;28;20140;-74
2022/07/28 03:01:37;;;;;;;5.15;2.35;;;10.10;99.90;;;;;;5044079;28;20417;-73
2022/07/28 03:04:03;;;;;;;5.47;2.40;;;10.10;99.90;;;;;;5046114;28;20045;-74
2022/07/28 03:06:28;;;;;;;6.90;2.50;;;10.10;99.90;;;;;;5046021;28;20033;-73
2022/07/28 03:08:55;;;;;;;6.68;2.40;;;10.40;99.90;;;;;;5044476;28;20131;-73
2022/07/28 03:11:20;;;;;;;8.27;2.83;;;10.20;99.90;;;;;;5044252;28;20045;-74
2022/07/28 03:13:46;;;;;;;6.38;2.58;;;10.20;99.90;;;;;;5045480;28;20048;-73
2022/07/28 03:16:12;;;;;;;7.65;2.55;;;10.20;99.90;;;;;;5045259;28;20052;-75
2022/07/28 03:18:39;;;;;;;6.28;2.80;;;10.30;99.90;;;;;;5043514;28;20437;-75
2022/07/28 03:21:04;;;;;;;4.97;2.35;;;10.30;99.90;;;;;;5045026;28;20048;-75
2022/07/28 03:23:40;;;;;;;6.07;2.80;;;10.40;99.90;;;;;;5047108;28;20029;-75
2022/07/28 03:26:14;;;;;;;6.65;2.70;;;10.40;99.90;;;;;;5046154;28;20051;-74
2022/07/28 03:28:43;;;;;;;6.47;2.67;;;10.40;99.90;;;;;;5042681;28;20079;-74
2022/07/28 03:31:10;;;;;;;5.68;2.80;;;10.50;99.90;;;;;;5029301;28;20224;-75
2022/07/28 03:33:37;;;;;;;7.00;2.50;;;10.50;99.90;;;;;;5045080;28;20110;-75
2022/07/28 03:36:08;;;;;;;6.97;2.85;;;10.70;99.90;;;;;;5046285;28;20682;-75
2022/07/28 03:38:42;;;;;;;6.38;2.75;;;10.60;99.90;;;;;;5046695;28;20037;-75
2022/07/28 03:41:08;;;;;;;5.55;2.65;;;10.50;99.90;;;;;;5042627;28;20162;-75
2022/07/28 03:43:34;;;;;;;7.05;2.72;;;10.50;99.90;;;;;;5045334;28;20405;-75
2022/07/28 03:46:00;;;;;;;6.75;2.55;;;10.50;99.90;;;;;;5044155;28;20040;-74
2022/07/28 03:48:30;;;;;;;9.38;2.70;;;10.60;99.90;;;;;;5043117;28;20041;-75
2022/07/28 03:50:56;;;;;;;6.03;2.70;;;10.50;99.90;;;;;;5044791;28;20420;-74
2022/07/28 03:53:25;;;;;;;5.60;2.58;;;10.50;99.90;;;;;;5045370;28;20036;-75
2022/07/28 03:55:52;;;;;;;7.45;2.70;;;10.40;99.90;;;;;;5029274;28;20078;-75
2022/07/28 03:58:24;;;;;;;7.50;2.97;;;10.50;99.90;;;;;;5041767;28;20040;-74
2022/07/28 04:00:49;;;;;;;7.75;3.10;;;10.50;99.90;;;;;;5040422;28;20409;-75
2022/07/28 04:03:22;;;;;;;6.80;3.10;;;10.50;99.90;;;;;;5027971;28;20041;-75
2022/07/28 04:05:48;;;;;;;5.97;2.90;;;10.40;99.90;;;;;;5044732;28;20132;-75
2022/07/28 04:08:13;;;;;;;7.25;2.60;;;10.40;99.90;;;;;;5041233;28;20045;-75
2022/07/28 04:10:39;;;;;;;6.20;3.05;;;10.50;99.90;;;;;;5039669;28;20040;-75
2022/07/28 04:13:05;;;;;;;10.05;3.28;;;10.40;99.90;;;;;;5045049;28;20029;-74
2022/07/28 04:15:31;;;;;;;6.68;2.92;;;10.70;99.90;;;;;;5043572;28;20045;-74
2022/07/28 04:17:58;;;;;;;8.15;3.00;;;10.50;99.90;;;;;;5040035;28;20052;-75
2022/07/28 04:20:25;;;;;;;5.80;2.60;;;10.50;99.90;;;;;;5043874;28;20060;-75
2022/07/28 04:22:52;;;;;;;9.05;3.10;;;10.60;99.90;;;;;;5041214;28;20060;-74
2022/07/28 04:25:20;;;;;;;6.72;2.60;;;10.60;99.90;;;;;;5041780;28;20777;-75
2022/07/28 04:27:46;;;;;;;6.63;2.72;;;10.60;99.90;;;;;;5040838;28;20037;-75
2022/07/28 04:30:17;;;;;;;5.75;2.50;;;10.80;99.90;;;;;;5026163;28;20048;-74
2022/07/28 04:32:44;;;;;;;;;;;10.70;99.90;;;;;;5043895;28;20533;-75
2022/07/28 04:35:10;;;;;;;6.53;2.53;;;10.70;99.90;;;;;;5039401;28;19951;-74
2022/07/28 04:37:37;;;;;;;7.05;2.85;;;10.80;99.90;;;;;;5031191;28;20508;-74
2022/07/28 04:40:05;;;;;;;6.95;2.50;;;10.90;99.90;;;;;;5030301;28;21744;-74
2022/07/28 04:42:30;;;;;;;5.93;2.70;;;11.00;99.90;;;;;;5037595;28;20068;-74
2022/07/28 04:44:56;;;;;;;6.80;2.42;;;11.10;99.90;;;;;;5030513;28;20195;-74
2022/07/28 04:47:23;;;;;;;6.35;2.72;;;11.10;99.90;;;;;;5046537;28;20056;-74
2022/07/28 04:49:50;;;;;;;10.35;2.78;;;11.20;99.90;;;;;;5046749;28;20158;-74
2022/07/28 04:52:15;;;;;;;4.82;2.28;;;11.40;99.90;;;;;;5025751;28;20041;-74
2022/07/28 04:54:41;;;;;;;5.53;2.47;;;11.70;99.90;;;;;;5044649;28;20504;-74
2022/07/28 04:57:09;;;;;;;9.77;2.67;;;11.90;99.90;;;;;;5040886;28;20041;-74
2022/07/28 04:59:35;;;;;;;7.18;2.45;;;12.10;99.90;;;;;;5045911;28;20044;-74
2022/07/28 05:02:01;;;;;;;11.38;2.33;;;12.80;99.90;;;;;;5046407;28;20449;-74
2022/07/28 05:04:27;;;;;;;11.07;2.83;;;12.70;99.90;;;;;;5043676;28;20169;-74
2022/07/28 05:06:53;;;;;;;7.00;2.17;;;12.80;99.90;;;;;;5030527;28;20088;-73
2022/07/28 05:09:20;;;;;;;6.00;2.70;;;12.50;99.90;;;;;;5030115;28;20048;-74
2022/07/28 05:11:46;;;;;;;4.32;2.05;;;12.30;99.90;;;;;;5047988;28;20119;-74
2022/07/28 05:14:11;;;;;;;6.15;1.98;;;12.20;99.90;;;;;;5047208;28;20045;-74
2022/07/28 05:16:37;;;;;;;6.72;2.67;;;12.10;99.90;;;;;;5044658;28;20091;-74
2022/07/28 05:19:03;;;;;;;5.28;2.70;;;12.00;99.90;;;;;;5050090;28;20037;-74
2022/07/28 05:21:28;;;;;;;4.13;2.00;;;11.90;99.90;;;;;;5045582;28;20045;-75
2022/07/28 05:23:54;;;;;;;5.28;2.10;;;12.00;99.90;;;;;;5048847;28;20041;-74
2022/07/28 05:26:20;;;;;;;6.40;2.30;;;11.90;99.90;;;;;;5028618;28;20041;-73
2022/07/28 05:28:45;;;;;;;6.50;2.50;;;11.90;99.90;;;;;;5046812;28;20041;-74
2022/07/28 05:31:11;;;;;;;7.70;2.55;;;12.00;99.90;;;;;;5046479;28;20468;-75
2022/07/28 05:33:37;;;;;;;5.10;2.20;;;12.00;99.90;;;;;;5047903;28;20079;-74
2022/07/28 05:36:04;;;;;;;6.40;1.90;;;12.10;99.90;;;;;;5042620;28;20041;-74
2022/07/28 05:38:30;;;;;;;5.75;2.47;;;12.20;99.90;;;;;;5049223;28;20044;-74
2022/07/28 05:40:57;;;;;;;8.60;2.47;;;12.40;99.90;;;;;;5030558;28;20048;-74
2022/07/28 05:43:22;;;;;;;5.10;2.10;;;12.60;99.90;;;;;;5032000;28;20045;-74
2022/07/28 05:45:51;;;;;;;10.38;2.67;;;12.70;99.90;;;;;;5049397;28;20055;-74
2022/07/28 05:48:21;;;;;;;5.10;2.33;;;12.90;99.90;;;;;;5047717;28;20041;-74
2022/07/28 05:50:48;;;;;;;5.80;2.38;;;13.10;99.90;;;;;;5029387;28;20942;-74
2022/07/28 05:53:15;;;;;;;5.60;2.33;;;13.20;99.90;;;;;;5041740;28;20052;-74
2022/07/28 05:55:40;;;;;;;5.70;2.17;;;13.40;99.90;;;;;;5043132;28;20041;-75
2022/07/28 05:58:06;;;;;;;5.50;2.08;;;13.50;99.90;;;;;;5045650;28;20405;-75
2022/07/28 06:00:32;;;;;;;3.58;1.60;;;13.70;99.90;;;;;;5023197;28;20129;-74
2022/07/28 06:03:01;;;;;;;3.78;1.33;;;13.90;99.90;;;;;;5040169;28;20076;-74
2022/07/28 06:05:29;;;;;;;4.40;1.20;;;14.30;99.90;;;;;;5043673;28;20049;-75
2022/07/28 06:07:54;;;;;;;7.80;1.33;;;14.40;99.90;;;;;;5043063;28;20143;-74
2022/07/28 06:10:22;;;;;;;5.25;1.35;;;14.60;99.90;;;;;;5041079;28;20154;-75
2022/07/28 06:12:55;;;;;;;5.50;1.38;;;14.70;99.90;;;;;;5042189;28;20033;-75
2022/07/28 06:15:23;;;;;;;4.50;1.40;;;14.70;99.90;;;;;;5036433;28;20052;-75
2022/07/28 06:17:51;;;;;;;6.25;1.35;;;14.80;99.90;;;;;;5025136;28;20296;-74
2022/07/28 06:20:21;;;;;;;7.18;2.38;;;14.80;99.90;;;;;;5041069;28;20044;-75
2022/07/28 06:22:49;;;;;;;5.20;1.55;;;14.80;99.90;;;;;;5023756;28;20124;-75
2022/07/28 06:25:17;;;;;;;5.15;1.60;;;14.90;99.90;;;;;;5042391;28;20116;-74
2022/07/28 06:27:47;;;;;;;7.68;1.20;;;15.00;99.90;;;;;;5045444;28;20053;-75
2022/07/28 06:30:13;;;;;;;8.07;1.40;;;15.10;99.90;;;;;;5038180;28;20053;-74
2022/07/28 06:32:39;;;;;;;7.65;1.60;;;15.20;99.90;;;;;;5059042;28;20052;-75
2022/07/28 06:35:06;;;;;;;7.68;1.50;;;15.40;99.90;;;;;;5042494;28;20044;-75
2022/07/28 06:37:32;;;;;;;3.47;1.15;;;15.30;99.90;;;;;;5026438;28;20037;-75
2022/07/28 06:39:58;;;;;;;5.00;1.30;;;15.40;99.90;;;;;;5039450;28;20060;-75
2022/07/28 06:42:24;;;;;;;6.47;1.90;;;15.40;99.90;;;;;;5016066;28;20041;-75
2022/07/28 06:44:50;;;;;;;4.18;1.33;;;15.50;99.90;;;;;;5033868;28;20169;-75
2022/07/28 06:47:17;;;;;;;7.68;1.40;;;15.50;99.90;;;;;;5037203;28;20045;-75
2022/07/28 06:49:43;;;;;;;5.90;1.40;;;15.50;99.90;;;;;;5023512;28;20099;-75
2022/07/28 06:52:08;;;;;;;7.93;1.40;;;15.50;99.90;;;;;;5038123;28;20453;-75
2022/07/28 06:54:34;;;;;;;5.32;1.25;;;15.50;99.90;;;;;;5041379;28;20044;-74
2022/07/28 06:57:00;;;;;;;7.75;1.60;;;15.60;99.90;;;;;;5057979;28;20045;-75
2022/07/28 06:59:26;;;;;;;5.15;1.23;;;15.60;99.90;;;;;;5054727;28;20140;-75
2022/07/28 07:01:51;;;;;;;6.13;1.63;;;15.60;99.90;;;;;;5039094;28;20643;-74
2022/07/28 07:04:17;;;;;;;4.65;1.10;;;15.60;99.90;;;;;;5020324;28;20037;-75
2022/07/28 07:06:43;;;;;;;7.88;1.50;;;15.60;99.90;;;;;;5056785;28;20123;-75
2022/07/28 07:09:09;;;;;;;5.47;1.20;;;15.60;99.90;;;;;;5041137;28;20037;-75
2022/07/28 07:11:37;;;;;;;7.35;1.88;;;15.60;99.90;;;;;;5017219;28;20045;-74
2022/07/28 07:14:03;;;;;;;8.25;1.17;;;15.60;99.90;;;;;;5038997;28;20077;-74
2022/07/28 07:16:29;;;;;;;7.82;1.30;;;15.60;99.90;;;;;;5038493;28;20120;-74
2022/07/28 07:18:54;;;;;;;8.35;1.30;;;15.50;99.90;;;;;;5040913;28;20049;-75
2022/07/28 07:21:20;;;;;;;4.05;1.33;;;15.50;99.90;;;;;;5039513;28;20040;-74
2022/07/28 07:23:47;;;;;;;11.07;1.85;;;15.50;99.90;;;;;;5043120;28;20383;-75
2022/07/28 07:26:13;;;;;;;3.70;1.17;;;15.40;99.90;;;;;;5040204;28;20048;-75
2022/07/28 07:28:40;;;;;;;5.50;1.25;;;15.40;99.90;;;;;;5058272;28;20880;-75
2022/07/28 07:31:06;;;;;;;4.57;1.10;;;15.40;99.90;;;;;;5038664;28;20132;-74
2022/07/28 07:33:32;;;;;;;5.30;0.90;;;15.30;99.90;;;;;;5038449;28;20043;-75
2022/07/28 07:35:57;;;;;;;10.32;1.40;;;15.40;99.90;;;;;;5042922;28;20041;-75
2022/07/28 07:38:23;;;;;;;5.55;1.10;;;15.40;99.90;;;;;;5040837;28;20056;-74
2022/07/28 07:40:52;;;;;;;7.32;1.15;;;15.40;99.90;;;;;;5058077;28;20087;-76
2022/07/28 07:43:18;;;;;;;4.13;0.98;;;15.40;99.90;;;;;;5042304;28;20029;-75
2022/07/28 07:45:43;;;;;;;7.35;1.38;;;15.50;99.90;;;;;;5024406;28;20053;-75
2022/07/28 07:48:09;;;;;;;7.75;1.80;;;15.50;99.90;;;;;;5018880;28;20528;-74
2022/07/28 07:50:35;;;;;;;7.53;1.60;;;15.40;99.90;;;;;;5039830;28;20037;-74
2022/07/28 07:53:00;;;;;;;4.22;1.02;;;15.40;99.90;;;;;;5037717;28;20575;-75
2022/07/28 07:55:26;;;;;;;7.03;1.17;;;15.40;99.90;;;;;;5035478;28;20052;-75
2022/07/28 07:57:52;;;;;;;4.70;0.93;;;15.40;99.90;;;;;;5035402;28;20128;-75
2022/07/28 08:00:19;;;;;;;4.93;0.80;;;15.40;99.90;;;;;;5036189;28;20083;-78
2022/07/28 08:02:44;;;;;;;5.35;1.10;;;15.50;99.90;;;;;;5032672;28;20180;-75
2022/07/28 08:05:10;;;;;;;3.10;0.80;;;15.50;99.90;;;;;;5037883;28;20163;-76
2022/07/28 08:07:36;;;;;;;4.80;0.93;;;15.60;99.90;;;;;;5016574;28;20069;-75
2022/07/28 08:10:03;;;;;;;4.15;0.90;;;15.60;99.90;;;;;;5037526;28;20041;-75
2022/07/28 08:12:29;;;;;;;5.90;1.20;;;15.60;99.90;;;;;;5023795;28;20053;-75
2022/07/28 08:14:54;;;;;;;2.67;0.93;;;15.60;99.90;;;;;;5040841;28;20557;-74
2022/07/28 08:17:21;;;;;;;4.50;0.80;;;15.70;99.90;;;;;;5020284;28;20069;-74
2022/07/28 08:19:47;;;;;;;4.63;1.13;;;15.70;99.90;;;;;;5054517;28;20048;-74
2022/07/28 08:22:14;;;;;;;3.78;1.00;;;15.80;99.90;;;;;;5067137;28;20053;-74
2022/07/28 08:24:40;;;;;;;5.25;0.90;;;15.80;99.90;;;;;;5042289;28;20068;-75
2022/07/28 08:27:06;;;;;;;3.65;1.00;;;15.90;99.90;;;;;;5037274;28;20049;-75
2022/07/28 08:29:32;;;;;;;3.55;0.90;;;16.20;99.90;;;;;;5039963;28;20097;-74
2022/07/28 08:32:00;;;;;;;5.25;1.10;;;16.20;99.90;;;;;;5037297;28;20049;-74
2022/07/28 08:34:25;;;;;;;4.85;1.27;;;16.40;99.90;;;;;;5036958;28;20045;-74
2022/07/28 08:36:54;;;;;;;4.13;1.10;;;16.60;99.90;;;;;;5019264;28;20106;-74
2022/07/28 08:39:20;;;;;;;5.75;1.25;;;16.70;99.90;;;;;;5035651;28;20485;-74
2022/07/28 08:42:07;;;;;;;3.75;1.15;;;16.90;99.90;;;;;;5020413;28;20060;-74
2022/07/28 08:45:08;;;;;;;5.35;1.15;;;17.10;99.90;;;;;;5037806;28;20055;-74
2022/07/28 08:47:35;;;;;;;4.30;1.25;;;17.30;99.90;;;;;;5041081;28;20041;-74
2022/07/28 08:50:01;;;;;;;6.15;1.20;;;17.50;99.90;;;;;;5040444;28;20048;-74
2022/07/28 08:52:29;;;;;;;9.23;2.38;;;17.70;99.90;;;;;;5039216;28;20502;-74
2022/07/28 08:54:56;;;;;;;5.20;1.20;;;17.80;99.90;;;;;;5037663;28;20124;-74
2022/07/28 08:57:39;;;;;;;6.53;1.50;;;17.90;99.90;;;;;;5036854;28;20428;-74
2022/07/28 09:00:06;;;;;;;5.63;1.20;;;18.00;99.90;;;;;;5038600;28;20052;-74
2022/07/28 09:02:36;;;;;;;5.13;1.33;;;18.20;99.90;;;;;;5031755;28;20041;-74
2022/07/28 09:05:03;;;;;;;4.25;1.20;;;18.40;99.90;;;;;;5031702;28;20048;-74
2022/07/28 09:07:30;;;;;;;4.68;1.20;;;18.50;99.90;;;;;;5030260;28;20033;-74
2022/07/28 09:09:56;;;;;;;5.65;1.45;;;18.70;99.90;;;;;;5032852;28;20469;-74
2022/07/28 09:12:22;;;;;;;3.78;1.10;;;18.90;99.90;;;;;;5029898;28;20045;-75
2022/07/28 09:14:54;;;;;;;5.78;1.00;;;19.10;99.90;;;;;;5029365;28;20139;-75
2022/07/28 09:17:19;;;;;;;4.07;0.82;;;19.20;99.90;;;;;;5025725;28;21032;-75
2022/07/28 09:19:45;;;;;;;6.03;1.20;;;19.20;99.90;;;;;;5031619;28;20070;-75
2022/07/28 09:22:12;;;;;;;2.83;1.10;;;19.40;99.90;;;;;;5031083;28;20372;-74
2022/07/28 09:24:39;;;;;;;5.22;1.10;;;19.80;99.90;;;;;;5032581;28;20131;-74
2022/07/28 09:27:10;;;;;;;6.18;1.27;;;20.10;99.90;;;;;;5044378;28;20073;-74
2022/07/28 09:29:38;;;;;;;8.52;1.20;;;20.30;99.90;;;;;;5039362;28;20535;-75
2022/07/28 09:32:05;;;;;;;3.42;0.80;;;20.50;99.90;;;;;;5057024;28;20409;-74
2022/07/28 09:34:44;;;;;;;5.97;1.02;;;20.70;99.90;;;;;;5042890;28;20658;-74
2022/07/28 09:37:24;;;;;;;4.47;1.10;;;20.90;99.90;;;;;;5043632;28;20549;-76
2022/07/28 09:39:51;;;;;;;3.08;0.70;;;21.20;99.90;;;;;;5056886;28;20071;-74
2022/07/28 09:42:18;;;;;;;5.78;0.90;;;21.40;99.90;;;;;;5024173;28;21221;-74
2022/07/28 09:45:05;;;;;;;3.05;1.13;;;21.60;99.90;;;;;;5039635;28;20083;-74
2022/07/28 09:47:31;;;;;;;4.15;0.93;;;21.70;99.90;;;;;;5023651;28;20069;-75
2022/07/28 09:49:58;;;;;;;4.38;1.00;;;21.80;99.90;;;;;;5035300;28;20070;-75
2022/07/28 09:52:29;;;;;;;3.55;0.85;;;22.00;99.90;;;;;;5039881;28;20037;-74
2022/07/28 09:55:13;;;;;;;6.10;1.00;;;22.00;99.90;;;;;;5026026;28;20457;-85
2022/07/28 09:57:39;;;;;;;3.30;0.82;;;22.20;99.90;;;;;;5038129;28;20563;-78
2022/07/28 10:00:13;;;;;;;3.90;0.90;;;22.00;99.90;;;;;;5036076;28;20991;-76
2022/07/28 10:02:38;;;;;;;2.47;0.85;;;22.00;99.90;;;;;;5014666;28;20461;-74
2022/07/28 10:05:05;;;;;;;3.97;0.90;;;22.00;99.90;;;;;;5031506;28;20037;-74
2022/07/28 10:07:33;;;;;;;7.72;0.95;;;22.20;99.90;;;;;;5011294;28;20037;-74
2022/07/28 10:10:04;;;;;;;8.20;0.90;;;22.40;99.90;;;;;;5034550;28;20052;-75
2022/07/28 10:12:32;;;;;;;2.13;0.60;;;22.40;99.90;;;;;;5049374;28;20041;-75
2022/07/28 10:16:09;;;;;;;3.13;0.70;;;22.60;99.90;;;;;;5016945;28;20638;-75
2022/07/28 10:17:56;;;;;;;2.15;0.82;;;23.00;99.90;;;;;;5035811;28;20425;-74
2022/07/28 10:20:22;;;;;;;7.30;1.27;;;22.80;99.90;;;;;;5019921;28;20037;-75
2022/07/28 10:22:54;;;;;;;4.05;1.00;;;22.20;99.60;;;;;;5038299;28;20445;-73
2022/07/28 10:25:20;;;;;;;3.80;1.05;;;21.60;99.90;;;;;;5036319;28;20152;-74
2022/07/28 10:27:48;;;;;;;5.47;0.98;;;21.20;99.90;;;;;;5034109;28;20548;-74
2022/07/28 10:30:14;;;;;;;2.25;0.80;;;21.00;99.90;;;;;;5034399;28;20045;-74
2022/07/28 10:32:44;;;;;;;4.55;1.00;;;20.80;99.90;;;;;;5033341;28;20098;-74
2022/07/28 10:35:15;;;;;;;1.80;0.80;;;20.50;99.90;;;;;;5034122;28;20037;-74
2022/07/28 10:37:50;;;;;;;4.15;1.30;;;20.30;99.90;;;;;;5039736;28;20752;-74
2022/07/28 10:40:21;;;;;;;5.03;1.00;;;20.10;99.90;;;;;;5052102;28;20530;-73
2022/07/28 10:42:46;;;;;;;3.60;1.20;;;19.70;99.90;;;;;;5034753;28;20052;-71
2022/07/28 10:45:12;;;;;;;4.30;1.00;;;19.40;99.90;;;;;;5054359;28;20297;-70
2022/07/28 10:47:40;;;;;;;4.75;1.05;;;19.20;99.90;;;;;;5029241;28;20070;-69
2022/07/28 10:50:07;;;;;;;5.93;1.40;;;19.00;99.90;;;;;;5033945;28;20049;-70
2022/07/28 10:52:35;;;;;;;4.70;0.85;;;18.90;99.90;;;;;;5023712;28;20406;-71
2022/07/28 10:55:06;;;;;;;5.10;1.17;;;18.80;99.90;;;;;;5033745;28;20049;-71
2022/07/28 10:57:33;;;;;;;2.75;0.98;;;18.80;99.90;;;;;;5018172;28;20530;-71
2022/07/28 11:00:16;;;;;;;2.85;1.02;;;18.80;99.90;;;;;;5060348;28;20047;-71
2022/07/28 11:02:50;;;;;;;5.32;0.98;;;18.80;99.90;;;;;;5041289;28;20053;-70
2022/07/28 11:05:26;;;;;;;3.50;0.90;;;18.90;99.90;;;;;;5025769;28;20083;-74
2022/07/28 11:07:56;;;;;;;6.53;1.15;;;19.00;99.90;;;;;;5034770;28;20530;-71
2022/07/28 11:10:22;;;;;;;3.28;1.10;;;19.20;99.90;;;;;;5035800;28;20082;-71
2022/07/28 11:12:50;;;;;;;2.97;0.80;;;19.20;99.90;;;;;;5031352;28;21133;-71
2022/07/28 11:15:36;;;;;;;2.80;0.75;;;19.40;99.90;;;;;;5018449;28;20498;-71
2022/07/28 11:18:09;;;;;;;4.43;0.82;;;19.60;99.90;;;;;;5037968;28;20163;-70
2022/07/28 11:20:50;;;;;;;2.83;0.70;;;19.80;99.90;;;;;;5041722;28;20084;-69
2022/07/28 11:23:42;;;;;;;4.32;1.00;;;19.90;99.90;;;;;;5038665;28;20052;-70
2022/07/28 11:26:20;;;;;;;3.25;0.82;;;19.80;99.90;;;;;;5038076;28;20115;-70
2022/07/28 11:29:07;;;;;;;3.53;0.75;;;19.60;99.90;;;;;;5036837;28;20037;-69
2022/07/28 11:34:18;;;;;;;2.70;0.80;;;19.40;99.90;;;;;;5039541;28;20064;-70
2022/07/28 11:37:05;;;;;;;4.00;0.80;;;19.30;99.90;;;;;;5023805;28;20151;-73
2022/07/28 11:39:32;;;;;;;3.92;0.90;;;19.30;99.90;;;;;;5039207;28;20111;-72
2022/07/28 11:41:58;;;;;;;2.63;0.70;;;19.30;99.90;;;;;;5036281;28;20037;-72
2022/07/28 11:44:30;;;;;;;3.70;0.95;;;19.50;99.90;;;;;;5022122;28;20043;-72
2022/07/28 11:47:21;;;;;;;3.80;0.82;;;19.50;99.90;;;;;;5033545;28;20744;-73
2022/07/28 11:50:09;;;;;;;4.65;0.90;;;19.50;99.90;;;;;;5038912;28;20057;-72
2022/07/28 11:52:36;;;;;;;2.83;1.00;;;19.50;99.90;;;;;;5040645;28;20045;-72
2022/07/28 11:55:02;;;;;;;4.75;0.95;;;19.50;99.90;;;;;;5041384;28;20045;-72
2022/07/28 11:57:28;;;;;;;2.92;0.65;;;19.30;99.90;;;;;;5041211;28;20425;-72
2022/07/28 11:59:57;;;;;;;2.65;0.70;;;19.20;99.90;;;;;;5042477;28;20051;-72
2022/07/28 12:02:25;;;;;;;4.43;0.90;;;19.10;99.90;;;;;;5024761;28;20053;-72
2022/07/28 12:04:58;;;;;;;4.50;0.88;;;19.00;99.90;;;;;;5042505;28;20579;-72
2022/07/28 12:07:33;;;;;;;1.45;0.70;;;18.90;99.90;;;;;;5024224;28;20068;-72
2022/07/28 12:10:00;;;;;;;5.70;1.20;;;18.80;99.90;;;;;;5040120;28;20080;-72
2022/07/28 12:12:29;;;;;;;2.72;0.70;;;18.80;99.90;;;;;;5024521;28;20040;-72
2022/07/28 12:14:56;;;;;;;5.43;0.85;;;18.80;99.90;;;;;;5037411;28;20060;-72
2022/07/28 12:17:30;;;;;;;4.78;1.02;;;18.80;99.90;;;;;;5036192;28;20103;-72
2022/07/28 12:20:07;;;;;;;2.63;0.80;;;18.80;99.90;;;;;;5041121;28;20083;-73
2022/07/28 12:22:32;;;;;;;4.75;0.85;;;18.90;99.90;;;;;;5041024;28;20052;-73
2022/07/28 12:24:58;;;;;;;3.08;0.93;;;19.00;99.90;;;;;;5041903;28;20758;-73
2022/07/28 12:27:28;;;;;;;4.22;1.20;;;19.10;99.90;;;;;;5032332;28;20131;-73
2022/07/28 12:30:00;;;;;;;2.05;0.80;;;19.30;99.90;;;;;;5020704;28;20060;-73
2022/07/28 12:32:31;;;;;;;5.20;0.88;;;19.40;99.90;;;;;;5042784;28;20044;-73
2022/07/28 12:34:57;;;;;;;1.80;0.70;;;19.60;99.90;;;;;;5041773;28;20170;-73
2022/07/28 12:37:23;;;;;;;3.28;0.95;;;19.80;99.40;;;;;;5058043;28;20111;-73
2022/07/28 12:39:55;;;;;;;3.05;1.00;;;19.90;99.90;;;;;;5040953;28;20134;-73
2022/07/28 12:42:20;;;;;;;6.68;0.90;;;20.00;99.90;;;;;;5040199;28;20052;-73
2022/07/28 12:44:47;;;;;;;3.30;1.05;;;20.00;99.90;;;;;;5043062;28;20049;-73
2022/07/28 12:47:26;;;;;;;2.65;0.82;;;20.20;99.90;;;;;;5025164;28;20041;-73
2022/07/28 12:50:12;;;;;;;3.72;0.90;;;20.30;99.90;;;;;;5043523;28;20587;-73
2022/07/28 12:52:44;;;;;;;2.63;0.88;;;20.50;99.70;;;;;;5043429;28;20053;-74
2022/07/28 12:55:30;;;;;;;2.22;0.80;;;20.60;99.20;;;;;;5038457;28;20468;-74
2022/07/28 12:57:56;;;;;;;5.30;1.00;;;20.60;98.50;;;;;;5039576;28;20041;-73
2022/07/28 13:00:25;;;;;;;2.13;0.80;;;20.60;99.40;;;;;;5039866;28;20040;-75
2022/07/28 13:02:54;;;;;;;2.53;0.80;;;20.80;99.30;;;;;;5037790;28;20406;-73